Terminal Aerodrome Forecast
Issued by NWS

Current Version | Previous Version | Text Only | Print | Product List | Glossary Off
Versions: 1 2 3 4 5 6 7 8 9 10 11 12 13 14 15 16 17 18 19 20 21 22 23 24 25 26 27 28 29 30 31 32 33 34 35 36 37 38 39 40 41 42 43 44 45

000
FTUS41 KRNK 081723
TAFLWB
TAF
KLWB 081723Z 0818/0918 25010G18KT P6SM BKN040 OVC080
     FM082100 24010G20KT 4SM TSRA OVC035CB
     FM090200 24006KT 6SM -SHRA OVC040
     FM090600 00000KT 2SM BR SCT005 BKN100
      TEMPO 0908/0911 1/2SM FG OVC003
     FM091200 25003KT 5SM BR BKN025=

USA.gov is the U.S. government's official web portal to all federal, state and local government web resources and services.